createdAt,value
2024-01-25T00:00:04.260Z,58.41
2024-01-25T00:01:07.923Z,58.54
2024-01-25T00:02:11.003Z,58.82
2024-01-25T00:03:13.936Z,58.81
2024-01-25T00:04:16.765Z,58.70
2024-01-25T00:05:19.999Z,58.85
2024-01-25T00:06:23.115Z,58.63
2024-01-25T00:07:26.036Z,59.04
2024-01-25T00:08:28.958Z,58.87
2024-01-25T00:09:32.061Z,58.15
2024-01-25T00:10:34.880Z,58.26
2024-01-25T00:11:37.709Z,58.74
2024-01-25T00:12:41.771Z,58.78
2024-01-25T00:13:44.579Z,58.50
2024-01-25T00:14:47.504Z,58.38
2024-01-25T00:15:50.535Z,58.51
2024-01-25T00:16:53.508Z,58.42
2024-01-25T00:17:57.921Z,58.25
2024-01-25T00:19:01.072Z,57.10
2024-01-25T00:20:05.452Z,56.98
2024-01-25T00:21:08.607Z,57.25
2024-01-25T00:22:11.467Z,57.30
2024-01-25T00:23:14.260Z,57.49
2024-01-25T00:24:17.034Z,57.80
2024-01-25T00:25:20.025Z,57.85
2024-01-25T00:26:23.111Z,57.71
2024-01-25T00:27:25.855Z,57.76
2024-01-25T00:28:30.355Z,58.38
2024-01-25T00:29:35.485Z,58.29
2024-01-25T00:30:38.538Z,58.00
2024-01-25T00:31:45.449Z,57.85
2024-01-25T00:32:49.542Z,57.64
2024-01-25T00:33:52.837Z,57.00
2024-01-25T00:34:56.214Z,56.90
2024-01-25T00:35:59.625Z,57.05
2024-01-25T00:37:03.050Z,57.50
2024-01-25T00:38:06.217Z,57.37
2024-01-25T00:39:09.365Z,57.44
2024-01-25T00:40:14.609Z,57.97
2024-01-25T00:41:20.215Z,58.34
2024-01-25T00:42:25.080Z,58.48
2024-01-25T00:43:28.280Z,58.73
2024-01-25T00:44:31.344Z,58.19
2024-01-25T00:45:34.872Z,58.89
2024-01-25T00:46:37.968Z,58.78
2024-01-25T00:47:41.143Z,58.40
2024-01-25T00:48:44.420Z,58.36
2024-01-25T00:49:48.030Z,59.21
2024-01-25T00:50:51.177Z,58.85
2024-01-25T00:52:01.412Z,59.24
2024-01-25T00:53:04.476Z,59.52
2024-01-25T00:54:07.631Z,59.23
2024-01-25T00:55:12.054Z,59.25
2024-01-25T00:56:15.313Z,59.64
2024-01-25T00:57:18.709Z,58.92
2024-01-25T00:58:21.860Z,58.85
2024-01-25T00:59:24.916Z,58.67
2024-01-25T01:00:28.140Z,58.44
2024-01-25T01:01:32.396Z,59.30
2024-01-25T01:02:43.965Z,60.00
2024-01-25T01:03:53.297Z,59.63
2024-01-25T01:04:56.805Z,59.10
2024-01-25T01:06:00.282Z,59.32
2024-01-25T01:07:03.722Z,59.39
2024-01-25T01:08:07.232Z,59.28
2024-01-25T01:09:10.187Z,59.27
2024-01-25T01:10:13.227Z,59.40
2024-01-25T01:11:16.109Z,59.73
2024-01-25T01:12:19.008Z,59.66
2024-01-25T01:13:22.082Z,59.50
2024-01-25T01:14:24.847Z,59.79
2024-01-25T01:15:27.757Z,59.62
2024-01-25T01:16:33.912Z,59.82
2024-01-25T01:17:36.749Z,59.11
2024-01-25T01:18:39.898Z,58.10
2024-01-25T01:19:43.104Z,58.29
2024-01-25T01:20:45.903Z,58.54
2024-01-25T01:21:48.737Z,58.57
2024-01-25T01:22:53.592Z,58.12
2024-01-25T01:23:56.371Z,58.48
2024-01-25T01:24:59.242Z,59.17
2024-01-25T01:26:02.158Z,59.32
2024-01-25T01:27:05.007Z,58.76
2024-01-25T01:28:08.103Z,58.64
2024-01-25T01:29:11.247Z,58.84
2024-01-25T01:30:14.043Z,58.75
2024-01-25T01:31:17.142Z,58.88
2024-01-25T01:32:20.040Z,59.51
2024-01-25T01:33:23.087Z,59.50
2024-01-25T01:34:26.301Z,59.58
2024-01-25T01:35:29.224Z,59.30
2024-01-25T01:36:32.253Z,59.04
2024-01-25T01:37:35.137Z,59.18
2024-01-25T01:38:38.033Z,59.79
2024-01-25T01:39:40.945Z,60.19
2024-01-25T01:40:46.535Z,59.94
2024-01-25T01:41:50.108Z,60.02
2024-01-25T01:42:59.686Z,59.85
2024-01-25T01:44:02.790Z,60.28
2024-01-25T01:45:06.121Z,60.44
2024-01-25T01:46:36.192Z,60.58
2024-01-25T01:47:39.132Z,60.02
2024-01-25T01:48:43.273Z,60.57
2024-01-25T01:49:46.726Z,61.00
2024-01-25T01:50:49.735Z,60.67
2024-01-25T01:51:53.966Z,61.04
2024-01-25T01:52:56.960Z,60.42
2024-01-25T01:54:02.911Z,60.16
2024-01-25T01:55:07.411Z,60.36
2024-01-25T01:56:11.290Z,60.65
2024-01-25T01:57:14.669Z,60.63
2024-01-25T01:58:21.749Z,60.79
2024-01-25T01:59:26.910Z,61.24
2024-01-25T02:00:31.796Z,61.27
2024-01-25T02:01:36.894Z,60.91
2024-01-25T02:02:39.857Z,61.05
2024-01-25T02:03:42.794Z,60.44
2024-01-25T02:04:45.973Z,60.63
2024-01-25T02:05:49.022Z,60.38
2024-01-25T02:06:51.916Z,60.39
2024-01-25T02:07:55.450Z,60.36
2024-01-25T02:09:00.456Z,60.38
2024-01-25T02:10:03.411Z,60.64
2024-01-25T02:11:06.356Z,60.89
2024-01-25T02:12:09.291Z,61.14
2024-01-25T02:13:12.305Z,61.61
2024-01-25T02:14:15.340Z,61.77
2024-01-25T02:15:18.275Z,61.53
2024-01-25T02:16:21.664Z,61.22
2024-01-25T02:17:24.896Z,61.10
2024-01-25T02:18:28.269Z,61.58
2024-01-25T02:19:31.252Z,60.62
2024-01-25T02:20:34.150Z,60.85
2024-01-25T02:21:36.937Z,61.51
2024-01-25T02:22:39.965Z,61.06
2024-01-25T02:23:42.897Z,61.03
2024-01-25T02:24:45.914Z,61.17
2024-01-25T02:25:49.116Z,60.69
2024-01-25T02:26:51.898Z,60.84
2024-01-25T02:27:55.720Z,60.67
2024-01-25T02:28:58.898Z,60.57
2024-01-25T02:30:01.792Z,60.47
2024-01-25T02:31:05.262Z,60.33
2024-01-25T02:32:08.160Z,60.36
2024-01-25T02:33:11.005Z,61.28
2024-01-25T02:34:14.472Z,61.99
2024-01-25T02:35:17.621Z,61.53
2024-01-25T02:36:23.624Z,61.68
2024-01-25T02:37:26.389Z,62.09
2024-01-25T02:38:29.218Z,61.23
2024-01-25T02:39:32.193Z,61.25
2024-01-25T02:40:35.182Z,61.18
2024-01-25T02:41:37.952Z,60.98
2024-01-25T02:42:40.803Z,61.05
2024-01-25T02:43:43.563Z,60.88
2024-01-25T02:44:46.668Z,60.84
2024-01-25T02:45:49.937Z,59.96
2024-01-25T02:46:53.640Z,61.23
2024-01-25T02:47:57.771Z,61.39
2024-01-25T02:49:01.836Z,61.66
2024-01-25T02:50:05.369Z,61.91
2024-01-25T02:51:08.283Z,61.46
2024-01-25T02:52:11.138Z,61.10
2024-01-25T02:53:13.927Z,61.81
2024-01-25T02:54:16.691Z,62.42
2024-01-25T02:55:22.051Z,62.56
2024-01-25T02:56:24.914Z,62.80
2024-01-25T02:57:27.810Z,62.88
2024-01-25T02:58:30.819Z,62.71
2024-01-25T02:59:33.619Z,62.39
2024-01-25T03:00:36.594Z,62.29
2024-01-25T03:01:42.252Z,62.37
2024-01-25T03:02:45.328Z,63.11
2024-01-25T03:03:48.461Z,63.15
2024-01-25T03:04:51.361Z,63.29
2024-01-25T03:05:54.723Z,62.87
2024-01-25T03:06:57.747Z,62.87
2024-01-25T03:08:00.606Z,63.23
2024-01-25T03:09:05.725Z,62.79
2024-01-25T03:10:09.037Z,63.03
2024-01-25T03:11:12.319Z,62.54
2024-01-25T03:12:15.105Z,62.57
2024-01-25T03:13:18.286Z,63.00
2024-01-25T03:14:21.373Z,62.60
2024-01-25T03:15:24.104Z,62.20
2024-01-25T03:16:27.201Z,62.51
2024-01-25T03:17:30.003Z,62.70
2024-01-25T03:18:32.979Z,62.91
2024-01-25T03:19:35.914Z,62.71
2024-01-25T03:20:38.760Z,62.15
2024-01-25T03:21:41.698Z,61.60
2024-01-25T03:22:44.516Z,62.37
2024-01-25T03:23:47.412Z,62.59
2024-01-25T03:24:50.297Z,62.11
2024-01-25T03:25:54.130Z,61.76
2024-01-25T03:26:57.049Z,61.62
2024-01-25T03:28:01.085Z,61.82
2024-01-25T03:29:04.069Z,61.46
2024-01-25T03:30:14.426Z,61.39
2024-01-25T03:31:17.485Z,61.55
2024-01-25T03:32:20.357Z,61.30
2024-01-25T03:33:23.266Z,61.82
2024-01-25T03:34:26.341Z,61.41
2024-01-25T03:35:29.259Z,61.57
2024-01-25T03:36:32.874Z,62.12
2024-01-25T03:37:35.794Z,61.54
2024-01-25T03:38:38.554Z,61.59
2024-01-25T03:39:41.485Z,62.12
2024-01-25T03:40:45.678Z,61.84
2024-01-25T03:41:48.675Z,61.45
2024-01-25T03:43:03.001Z,61.53
2024-01-25T03:44:14.727Z,62.26
2024-01-25T03:45:17.591Z,62.47
2024-01-25T03:46:20.533Z,62.17
2024-01-25T03:47:23.418Z,62.35
2024-01-25T03:48:26.219Z,62.31
2024-01-25T03:49:29.309Z,62.19
2024-01-25T03:50:32.206Z,61.25
2024-01-25T03:51:35.180Z,61.53
2024-01-25T03:52:38.078Z,61.37
2024-01-25T03:53:43.008Z,61.84
2024-01-25T03:54:45.877Z,62.34
2024-01-25T03:55:50.117Z,62.49
2024-01-25T03:56:53.641Z,63.08
2024-01-25T03:57:56.566Z,63.04
2024-01-25T03:59:00.050Z,62.87
2024-01-25T04:00:04.268Z,62.94
2024-01-25T04:01:08.447Z,62.74
2024-01-25T04:02:12.321Z,62.47
2024-01-25T04:03:15.540Z,62.32
2024-01-25T04:04:18.612Z,62.89
2024-01-25T04:05:21.935Z,62.87
2024-01-25T04:06:24.934Z,62.84
2024-01-25T04:07:27.888Z,62.76
2024-01-25T04:08:30.713Z,63.23
2024-01-25T04:09:33.569Z,61.97
2024-01-25T04:10:36.390Z,62.30
2024-01-25T04:11:39.487Z,62.58
2024-01-25T04:12:42.315Z,62.23
2024-01-25T04:13:45.094Z,62.42
2024-01-25T04:14:48.110Z,62.62
2024-01-25T04:15:51.044Z,62.49
2024-01-25T04:16:53.995Z,63.02
2024-01-25T04:17:57.331Z,63.27
2024-01-25T04:19:00.534Z,63.69
2024-01-25T04:20:04.358Z,63.26
2024-01-25T04:21:07.383Z,62.75
2024-01-25T04:22:10.400Z,62.94
2024-01-25T04:23:13.194Z,63.12
2024-01-25T04:24:16.203Z,63.05
2024-01-25T04:25:19.193Z,62.70
2024-01-25T04:26:22.168Z,62.92
2024-01-25T04:27:25.079Z,62.90
2024-01-25T04:28:27.903Z,62.43
2024-01-25T04:29:30.830Z,62.33
2024-01-25T04:30:34.036Z,62.99
2024-01-25T04:31:45.159Z,62.98
2024-01-25T04:32:48.099Z,62.68
2024-01-25T04:33:51.189Z,62.16
2024-01-25T04:34:54.258Z,61.97
2024-01-25T04:35:57.201Z,62.45
2024-01-25T04:37:00.237Z,62.39
2024-01-25T04:38:03.059Z,61.80
2024-01-25T04:39:06.591Z,61.72
2024-01-25T04:40:09.857Z,62.16
2024-01-25T04:41:12.647Z,62.10
2024-01-25T04:42:15.728Z,62.17
2024-01-25T04:43:18.654Z,61.80
2024-01-25T04:44:21.448Z,61.74
2024-01-25T04:45:24.218Z,62.36
2024-01-25T04:46:27.888Z,62.55
2024-01-25T04:47:31.158Z,62.69
2024-01-25T04:48:52.521Z,62.46
2024-01-25T04:49:55.710Z,61.96
2024-01-25T04:51:09.542Z,62.03
2024-01-25T04:52:30.711Z,62.07
2024-01-25T04:53:34.105Z,62.00
2024-01-25T04:54:37.022Z,62.03
2024-01-25T04:55:40.018Z,61.54
2024-01-25T04:56:43.924Z,61.90
2024-01-25T04:57:47.029Z,61.49
2024-01-25T04:58:49.874Z,61.42
2024-01-25T04:59:52.810Z,61.48
2024-01-25T05:00:56.591Z,61.58
2024-01-25T05:02:00.632Z,61.43
2024-01-25T05:03:03.781Z,62.06
2024-01-25T05:04:06.952Z,61.95
2024-01-25T05:05:24.931Z,61.78
2024-01-25T05:06:27.926Z,61.65
2024-01-25T05:07:31.446Z,61.42
2024-01-25T05:08:34.531Z,61.22
2024-01-25T05:09:37.439Z,61.22
2024-01-25T05:10:40.200Z,61.15
2024-01-25T05:11:43.167Z,60.99
2024-01-25T05:12:46.232Z,61.44
2024-01-25T05:13:52.189Z,61.57
2024-01-25T05:14:55.075Z,61.40
2024-01-25T05:15:57.993Z,61.22
2024-01-25T05:17:01.070Z,61.50
2024-01-25T05:18:06.062Z,61.84
2024-01-25T05:19:09.186Z,61.60
2024-01-25T05:20:13.613Z,61.07
2024-01-25T05:21:16.840Z,61.19
2024-01-25T05:22:20.179Z,61.09
2024-01-25T05:23:23.238Z,61.25
2024-01-25T05:24:26.718Z,61.03
2024-01-25T05:25:30.252Z,61.03
2024-01-25T05:26:33.483Z,60.78
2024-01-25T05:27:36.462Z,61.32
2024-01-25T05:28:39.440Z,61.64
2024-01-25T05:29:42.516Z,61.94
2024-01-25T05:30:45.617Z,61.29
2024-01-25T05:31:49.735Z,61.58
2024-01-25T05:32:56.261Z,61.62
2024-01-25T05:33:59.597Z,61.40
2024-01-25T05:35:02.702Z,61.67
2024-01-25T05:36:05.594Z,61.28
2024-01-25T05:37:08.536Z,61.33
2024-01-25T05:38:12.049Z,61.37
2024-01-25T05:39:16.114Z,61.53
2024-01-25T05:40:20.272Z,61.59
2024-01-25T05:41:23.338Z,61.23
2024-01-25T05:42:26.381Z,61.63
2024-01-25T05:43:29.254Z,61.23
2024-01-25T05:44:32.531Z,61.14
2024-01-25T05:45:35.629Z,60.39
2024-01-25T05:46:38.514Z,60.32
2024-01-25T05:47:41.679Z,60.09
2024-01-25T05:48:44.975Z,59.47
2024-01-25T05:49:48.248Z,59.36
2024-01-25T05:50:51.246Z,59.32
2024-01-25T05:51:54.015Z,58.85
2024-01-25T05:53:00.471Z,59.06
2024-01-25T05:54:03.575Z,58.41
2024-01-25T05:55:07.208Z,58.43
2024-01-25T05:56:10.438Z,58.26
2024-01-25T05:57:13.239Z,57.82
2024-01-25T05:58:16.093Z,57.89
2024-01-25T05:59:19.003Z,57.84
2024-01-25T06:00:22.188Z,57.84
2024-01-25T06:01:25.110Z,58.19
2024-01-25T06:02:28.059Z,58.24
2024-01-25T06:03:31.373Z,58.25
2024-01-25T06:04:34.436Z,58.80
2024-01-25T06:05:37.753Z,59.10
2024-01-25T06:06:40.846Z,58.67
2024-01-25T06:07:43.975Z,58.81
2024-01-25T06:08:52.225Z,58.35
2024-01-25T06:10:01.607Z,58.07
2024-01-25T06:11:04.551Z,58.53
2024-01-25T06:12:07.614Z,58.28
2024-01-25T06:13:10.655Z,58.13
2024-01-25T06:14:13.822Z,58.10
2024-01-25T06:15:16.728Z,57.92
2024-01-25T06:16:19.949Z,58.35
2024-01-25T06:17:22.910Z,57.91
2024-01-25T06:18:26.766Z,57.51
2024-01-25T06:19:29.910Z,57.38
2024-01-25T06:20:32.984Z,57.67
2024-01-25T06:21:36.803Z,57.22
2024-01-25T06:22:39.603Z,57.34
2024-01-25T06:23:42.388Z,57.67
2024-01-25T06:24:45.317Z,57.62
2024-01-25T06:25:48.137Z,57.73
2024-01-25T06:26:51.040Z,57.65
2024-01-25T06:27:53.928Z,57.56
2024-01-25T06:28:57.903Z,57.42
2024-01-25T06:30:00.906Z,56.77
2024-01-25T06:31:03.794Z,57.22
2024-01-25T06:32:11.195Z,57.45
2024-01-25T06:33:16.869Z,57.14
2024-01-25T06:34:19.989Z,56.93
2024-01-25T06:35:23.220Z,57.05
2024-01-25T06:36:26.161Z,57.12
2024-01-25T06:37:29.250Z,56.92
2024-01-25T06:38:32.102Z,57.05
2024-01-25T06:39:35.829Z,56.66
2024-01-25T06:40:39.528Z,56.38
2024-01-25T06:41:43.038Z,57.07
2024-01-25T06:42:46.160Z,56.65
2024-01-25T06:43:49.027Z,55.95
2024-01-25T06:44:52.100Z,56.66
2024-01-25T06:45:54.946Z,56.53
2024-01-25T06:46:57.854Z,56.63
2024-01-25T06:48:00.693Z,56.77
2024-01-25T06:49:04.238Z,57.41
2024-01-25T06:50:08.189Z,57.11
2024-01-25T06:51:11.078Z,56.96
2024-01-25T06:52:13.907Z,57.07
2024-01-25T06:53:17.280Z,56.93
2024-01-25T06:54:20.060Z,56.99
2024-01-25T06:55:23.148Z,56.98
2024-01-25T06:56:25.977Z,57.39
2024-01-25T06:57:28.717Z,57.00
2024-01-25T06:58:31.973Z,56.91
2024-01-25T06:59:35.251Z,56.83
2024-01-25T07:00:40.011Z,57.00
2024-01-25T07:01:43.474Z,57.12
2024-01-25T07:02:46.758Z,56.83
2024-01-25T07:03:54.223Z,57.32
2024-01-25T07:04:58.214Z,57.51
2024-01-25T07:06:01.918Z,57.56
2024-01-25T07:07:05.202Z,57.42
2024-01-25T07:08:10.133Z,57.94
2024-01-25T07:09:17.253Z,58.30
2024-01-25T07:10:20.266Z,58.36
2024-01-25T07:11:23.519Z,57.99
2024-01-25T07:12:26.324Z,58.29
2024-01-25T07:13:29.300Z,58.25
2024-01-25T07:14:32.071Z,58.60
2024-01-25T07:15:35.224Z,59.05
2024-01-25T07:16:39.570Z,58.70
2024-01-25T07:17:42.488Z,59.15
2024-01-25T07:18:45.441Z,59.31
2024-01-25T07:19:48.545Z,59.07
2024-01-25T07:20:52.192Z,58.93
2024-01-25T07:21:55.062Z,58.61
2024-01-25T07:22:58.039Z,58.58
2024-01-25T07:24:07.550Z,58.86
2024-01-25T07:25:10.512Z,58.63
2024-01-25T07:26:18.642Z,58.86
2024-01-25T07:27:21.514Z,58.95
2024-01-25T07:28:24.336Z,58.93
2024-01-25T07:29:30.259Z,58.83
2024-01-25T07:30:33.490Z,58.87
2024-01-25T07:31:36.469Z,58.72
2024-01-25T07:32:42.527Z,59.02
2024-01-25T07:33:45.476Z,58.50
2024-01-25T07:34:48.657Z,58.48
2024-01-25T07:35:51.696Z,58.48
2024-01-25T07:36:54.807Z,58.87
2024-01-25T07:37:57.575Z,58.89
2024-01-25T07:39:00.561Z,58.66
2024-01-25T07:40:06.515Z,59.05
2024-01-25T07:41:09.417Z,58.08
2024-01-25T07:42:13.306Z,58.14
2024-01-25T07:43:16.307Z,58.67
2024-01-25T07:44:20.474Z,58.37
2024-01-25T07:45:23.490Z,58.13
2024-01-25T07:46:26.469Z,58.04
2024-01-25T07:47:29.237Z,58.08
2024-01-25T07:48:33.068Z,58.42
2024-01-25T07:49:36.265Z,57.99
2024-01-25T07:50:39.436Z,58.60
2024-01-25T07:51:42.328Z,58.58
2024-01-25T07:52:45.344Z,58.89
2024-01-25T07:53:48.123Z,58.69
2024-01-25T07:54:51.059Z,58.50
2024-01-25T07:55:54.494Z,58.80
2024-01-25T07:56:57.280Z,59.11
2024-01-25T07:58:00.232Z,58.52
2024-01-25T07:59:03.085Z,58.67
2024-01-25T08:00:06.596Z,58.75
2024-01-25T08:01:10.713Z,58.82
2024-01-25T08:02:14.723Z,58.66
2024-01-25T08:03:18.647Z,58.58
2024-01-25T08:04:21.805Z,58.35
2024-01-25T08:05:33.757Z,58.65
2024-01-25T08:06:41.116Z,58.52
2024-01-25T08:07:46.032Z,58.32
2024-01-25T08:08:49.085Z,58.24
2024-01-25T08:09:53.955Z,58.31
2024-01-25T08:10:57.086Z,58.77
2024-01-25T08:12:00.000Z,59.26
2024-01-25T08:13:07.278Z,58.61
2024-01-25T08:14:10.999Z,59.25
2024-01-25T08:15:14.528Z,58.73
2024-01-25T08:16:21.383Z,58.62
2024-01-25T08:17:24.407Z,58.70
2024-01-25T08:18:30.632Z,58.42
2024-01-25T08:19:33.832Z,58.97
2024-01-25T08:20:39.380Z,59.74
2024-01-25T08:21:42.797Z,59.95
2024-01-25T08:22:45.684Z,60.77
2024-01-25T08:23:48.870Z,59.93
2024-01-25T08:24:51.689Z,60.39
2024-01-25T08:25:55.048Z,59.67
2024-01-25T08:26:57.937Z,59.35
2024-01-25T08:28:01.443Z,59.50
2024-01-25T08:29:04.527Z,59.15
2024-01-25T08:30:08.113Z,59.57
2024-01-25T08:31:11.652Z,59.21
2024-01-25T08:32:14.508Z,59.65
2024-01-25T08:33:17.635Z,59.73
2024-01-25T08:34:22.536Z,60.36
2024-01-25T08:35:25.641Z,60.29
2024-01-25T08:36:28.498Z,60.19
2024-01-25T08:37:31.257Z,60.18
2024-01-25T08:38:34.959Z,60.49
2024-01-25T08:39:37.950Z,60.66
2024-01-25T08:40:40.983Z,60.73
2024-01-25T08:41:43.813Z,60.59
2024-01-25T08:42:47.139Z,60.34
2024-01-25T08:43:50.081Z,60.16
2024-01-25T08:44:52.975Z,60.11
2024-01-25T08:45:55.978Z,59.83
2024-01-25T08:46:58.926Z,59.21
2024-01-25T08:48:02.030Z,60.39
2024-01-25T08:49:09.757Z,60.02
2024-01-25T08:50:13.319Z,59.99
2024-01-25T08:51:16.687Z,59.51
2024-01-25T08:52:19.529Z,59.43
2024-01-25T08:53:24.170Z,60.05
2024-01-25T08:54:27.013Z,60.50
2024-01-25T08:55:30.158Z,60.56
2024-01-25T08:56:33.001Z,60.65
2024-01-25T08:57:36.622Z,61.13
2024-01-25T08:58:39.845Z,60.64
2024-01-25T08:59:42.694Z,60.81
2024-01-25T09:00:45.700Z,60.85
2024-01-25T09:01:48.874Z,61.42
2024-01-25T09:02:52.135Z,60.86
2024-01-25T09:03:55.339Z,60.63
2024-01-25T09:04:59.044Z,60.33
2024-01-25T09:06:06.642Z,60.74
2024-01-25T09:07:10.529Z,61.06
2024-01-25T09:08:14.752Z,61.18
2024-01-25T09:09:17.580Z,61.22
2024-01-25T09:10:20.561Z,61.02
2024-01-25T09:11:23.616Z,60.93
2024-01-25T09:12:26.546Z,61.02
2024-01-25T09:13:29.644Z,60.56
2024-01-25T09:14:33.547Z,60.70
2024-01-25T09:15:36.523Z,61.00
2024-01-25T09:16:39.830Z,60.69
2024-01-25T09:17:43.096Z,60.83
2024-01-25T09:18:46.304Z,61.29
2024-01-25T09:19:54.020Z,61.05
2024-01-25T09:20:57.255Z,60.86
2024-01-25T09:22:05.823Z,60.54
2024-01-25T09:23:08.854Z,60.38
2024-01-25T09:24:12.005Z,60.20
2024-01-25T09:25:14.899Z,60.33
2024-01-25T09:26:18.073Z,60.42
2024-01-25T09:27:20.869Z,60.55
2024-01-25T09:28:24.314Z,60.61
2024-01-25T09:29:27.628Z,60.60
2024-01-25T09:30:31.862Z,60.88
2024-01-25T09:31:35.193Z,61.19
2024-01-25T09:32:38.235Z,61.05
2024-01-25T09:33:42.598Z,61.36
2024-01-25T09:34:46.368Z,60.71
2024-01-25T09:35:50.154Z,60.37
2024-01-25T09:36:54.128Z,60.21
2024-01-25T09:37:57.204Z,59.70
2024-01-25T09:39:00.463Z,60.37
2024-01-25T09:40:05.438Z,60.33
2024-01-25T09:41:09.094Z,60.09
2024-01-25T09:42:13.304Z,59.90
2024-01-25T09:43:16.379Z,60.25
2024-01-25T09:44:21.178Z,60.23
2024-01-25T09:45:25.447Z,60.99
2024-01-25T09:46:29.261Z,60.75
2024-01-25T09:47:32.437Z,60.63
2024-01-25T09:48:37.213Z,60.63
2024-01-25T09:49:41.153Z,60.68
2024-01-25T09:50:47.955Z,60.75
2024-01-25T09:51:52.798Z,61.24
2024-01-25T09:53:00.887Z,61.65
2024-01-25T09:54:05.758Z,61.74
2024-01-25T09:55:09.137Z,61.68
2024-01-25T09:56:16.581Z,61.52
2024-01-25T09:57:25.109Z,61.61
2024-01-25T09:58:48.995Z,61.54
2024-01-25T09:59:52.042Z,61.41
2024-01-25T10:00:55.146Z,61.46
2024-01-25T10:02:00.588Z,61.07
2024-01-25T10:03:04.192Z,61.43
2024-01-25T10:04:10.380Z,61.63
2024-01-25T10:05:13.293Z,61.41
2024-01-25T10:06:17.958Z,61.17
2024-01-25T10:07:43.152Z,61.14
2024-01-25T10:08:46.907Z,60.93
2024-01-25T10:09:49.733Z,60.82
2024-01-25T10:10:54.474Z,61.09
2024-01-25T10:12:10.437Z,60.85
2024-01-25T10:13:21.263Z,60.61
2024-01-25T10:14:24.615Z,60.84
2024-01-25T10:15:28.368Z,61.22
2024-01-25T10:16:32.348Z,60.88
2024-01-25T10:17:52.696Z,60.56
2024-01-25T10:18:59.535Z,60.46
2024-01-25T10:20:12.497Z,59.88
2024-01-25T10:21:17.917Z,60.15
2024-01-25T10:22:21.691Z,59.85
2024-01-25T10:23:26.829Z,60.22
2024-01-25T10:24:30.602Z,60.00
2024-01-25T10:25:36.042Z,59.88
2024-01-25T10:26:43.151Z,60.34
2024-01-25T10:27:46.676Z,59.95
2024-01-25T10:28:58.019Z,59.58
2024-01-25T10:30:07.875Z,60.12
2024-01-25T10:31:11.314Z,60.79
2024-01-25T10:32:15.294Z,60.85
2024-01-25T10:33:19.421Z,60.77
2024-01-25T10:34:26.414Z,60.40
2024-01-25T10:35:30.678Z,60.11
2024-01-25T10:36:35.753Z,59.72
2024-01-25T10:37:41.978Z,59.61
2024-01-25T10:38:48.792Z,60.34
2024-01-25T10:39:52.680Z,60.24
2024-01-25T10:41:06.921Z,60.46
2024-01-25T10:42:10.497Z,60.78
2024-01-25T10:43:13.493Z,60.38
2024-01-25T10:44:20.415Z,59.82
2024-01-25T10:45:24.212Z,59.49
2024-01-25T10:46:28.359Z,59.66
2024-01-25T10:47:36.603Z,59.82
2024-01-25T10:48:40.802Z,59.99
2024-01-25T10:49:48.326Z,60.16
2024-01-25T10:50:51.704Z,60.42
2024-01-25T10:51:54.951Z,60.05
2024-01-25T10:52:59.659Z,60.03
2024-01-25T10:54:03.377Z,59.51
2024-01-25T10:55:09.197Z,59.88
2024-01-25T10:56:12.850Z,59.92
2024-01-25T10:57:15.751Z,60.58
2024-01-25T10:58:18.759Z,60.17
2024-01-25T10:59:22.631Z,60.17
2024-01-25T11:00:25.533Z,60.80
2024-01-25T11:01:29.099Z,60.27
2024-01-25T11:02:32.279Z,60.69
2024-01-25T11:03:36.206Z,60.38
2024-01-25T11:04:39.137Z,59.71
2024-01-25T11:05:43.405Z,59.51
2024-01-25T11:06:47.285Z,60.07
2024-01-25T11:07:52.243Z,59.62
2024-01-25T11:09:10.208Z,59.88
2024-01-25T11:10:17.098Z,60.38
2024-01-25T11:11:22.120Z,60.56
2024-01-25T11:12:25.183Z,60.45
2024-01-25T11:13:28.648Z,60.57
2024-01-25T11:14:32.497Z,60.04
2024-01-25T11:15:37.012Z,60.07
2024-01-25T11:16:43.525Z,59.80
2024-01-25T11:17:54.364Z,59.44
2024-01-25T11:19:08.335Z,59.36
2024-01-25T11:20:15.369Z,59.35
2024-01-25T11:21:39.474Z,59.41
2024-01-25T11:22:46.381Z,59.38
2024-01-25T11:23:49.217Z,59.16
2024-01-25T11:24:52.299Z,59.17
2024-01-25T11:25:56.038Z,58.62
2024-01-25T11:27:01.944Z,58.95
2024-01-25T11:28:06.911Z,59.16
2024-01-25T11:29:09.785Z,58.97
2024-01-25T11:30:14.516Z,58.68
2024-01-25T11:31:17.696Z,58.68
2024-01-25T11:32:20.822Z,58.80
2024-01-25T11:33:24.919Z,58.72
2024-01-25T11:34:27.955Z,58.40
2024-01-25T11:35:31.262Z,57.82
2024-01-25T11:36:34.611Z,57.39
2024-01-25T11:37:38.234Z,58.14
2024-01-25T11:38:41.217Z,58.25
2024-01-25T11:39:44.698Z,58.57
2024-01-25T11:40:47.708Z,58.92
2024-01-25T11:41:53.085Z,58.83
2024-01-25T11:42:56.466Z,58.73
2024-01-25T11:43:59.541Z,58.43
2024-01-25T11:45:02.504Z,58.28
2024-01-25T11:46:05.508Z,58.72
2024-01-25T11:47:09.120Z,58.74
2024-01-25T11:48:12.567Z,58.26
2024-01-25T11:49:16.079Z,58.34
2024-01-25T11:50:19.653Z,58.51
2024-01-25T11:51:23.975Z,58.22
2024-01-25T11:52:30.235Z,58.58
2024-01-25T11:53:34.103Z,58.51
2024-01-25T11:54:37.076Z,58.53
2024-01-25T11:55:39.909Z,58.71
2024-01-25T11:56:44.581Z,58.34
2024-01-25T11:57:48.085Z,58.30
2024-01-25T11:58:51.981Z,58.53
2024-01-25T11:59:57.857Z,58.44
2024-01-25T12:01:01.197Z,58.53
2024-01-25T12:02:05.185Z,58.45
2024-01-25T12:03:08.876Z,58.50
2024-01-25T12:04:11.989Z,57.71
2024-01-25T12:05:15.748Z,58.52
2024-01-25T12:06:19.990Z,57.85
2024-01-25T12:07:23.077Z,57.80
2024-01-25T12:08:26.220Z,57.56
2024-01-25T12:09:33.933Z,57.69
2024-01-25T12:10:37.185Z,57.35
2024-01-25T12:11:42.408Z,57.75
2024-01-25T12:12:45.721Z,57.59
2024-01-25T12:13:48.734Z,57.25
2024-01-25T12:14:53.349Z,57.32
2024-01-25T12:15:57.534Z,57.68
2024-01-25T12:17:00.336Z,57.41
2024-01-25T12:18:03.527Z,56.78
2024-01-25T12:19:07.264Z,56.95
2024-01-25T12:20:13.387Z,56.77
2024-01-25T12:21:16.498Z,56.73
2024-01-25T12:22:23.995Z,57.01
2024-01-25T12:23:38.084Z,57.09
2024-01-25T12:24:47.030Z,57.26
2024-01-25T12:25:56.391Z,57.10
2024-01-25T12:27:00.261Z,57.05
2024-01-25T12:28:05.742Z,57.13
2024-01-25T12:29:11.881Z,56.58
2024-01-25T12:30:14.818Z,56.81
2024-01-25T12:31:17.807Z,56.67
2024-01-25T12:32:21.735Z,57.21
2024-01-25T12:33:27.688Z,56.71
2024-01-25T12:34:33.809Z,56.89
2024-01-25T12:35:38.344Z,56.23
2024-01-25T12:36:41.407Z,56.70
2024-01-25T12:37:44.231Z,56.83
2024-01-25T12:38:47.398Z,56.89
2024-01-25T12:39:54.662Z,56.51
2024-01-25T12:40:58.142Z,56.40
2024-01-25T12:42:01.480Z,56.11
2024-01-25T12:43:04.831Z,56.11
2024-01-25T12:44:08.286Z,56.22
2024-01-25T12:45:11.284Z,56.10
2024-01-25T12:46:22.453Z,56.31
2024-01-25T12:47:30.275Z,56.81
2024-01-25T12:48:33.350Z,56.76
2024-01-25T12:49:36.616Z,56.66
2024-01-25T12:50:39.850Z,56.52
2024-01-25T12:51:43.487Z,56.76
2024-01-25T12:52:47.789Z,56.81
2024-01-25T12:53:51.437Z,56.36
2024-01-25T12:54:56.243Z,55.87
2024-01-25T12:55:59.246Z,55.53
2024-01-25T12:57:02.088Z,55.86
2024-01-25T12:58:05.502Z,55.55
2024-01-25T12:59:09.983Z,55.59
2024-01-25T13:00:13.169Z,55.76
2024-01-25T13:01:17.078Z,55.77
2024-01-25T13:02:20.721Z,55.38
2024-01-25T13:03:24.290Z,55.32
2024-01-25T13:04:28.365Z,55.64
2024-01-25T13:05:35.047Z,55.83
2024-01-25T13:06:38.929Z,55.69
2024-01-25T13:07:42.058Z,55.99
2024-01-25T13:08:45.216Z,56.15
2024-01-25T13:09:48.167Z,55.86
2024-01-25T13:10:51.236Z,56.34
2024-01-25T13:11:53.993Z,56.15
2024-01-25T13:12:56.811Z,56.11
2024-01-25T13:13:59.932Z,56.23
2024-01-25T13:15:03.612Z,56.06
2024-01-25T13:16:07.093Z,56.02
2024-01-25T13:17:10.264Z,56.06
2024-01-25T13:18:13.091Z,55.79
2024-01-25T13:19:16.288Z,56.42
2024-01-25T13:20:19.353Z,56.50
2024-01-25T13:21:22.222Z,56.60
2024-01-25T13:22:25.749Z,56.57
2024-01-25T13:23:28.498Z,56.18
2024-01-25T13:24:31.534Z,56.25
2024-01-25T13:25:34.436Z,55.79
2024-01-25T13:26:37.942Z,56.16
2024-01-25T13:27:40.851Z,56.39
2024-01-25T13:28:43.638Z,56.07
2024-01-25T13:29:46.612Z,56.23
2024-01-25T13:30:49.798Z,56.64
2024-01-25T13:31:52.823Z,56.81
2024-01-25T13:32:55.907Z,56.78
2024-01-25T13:33:59.051Z,56.58
2024-01-25T13:35:02.206Z,56.59
2024-01-25T13:36:09.853Z,56.50
2024-01-25T13:37:12.830Z,56.18
2024-01-25T13:38:17.443Z,56.70
2024-01-25T13:39:20.453Z,56.28
2024-01-25T13:40:23.386Z,56.24
2024-01-25T13:41:27.549Z,56.28
2024-01-25T13:42:30.378Z,56.24
2024-01-25T13:43:33.201Z,56.14
2024-01-25T13:44:36.276Z,56.46